Time;durP1;ratioP1;P1;durP2;ratioP2;P2;SDS_P1;SDS_P2;PMS_P1;PMS_P2;Temp;Humidity;BMP_temperature;BMP_pressure;BME280_temperature;BME280_humidity;BME280_pressure;Samples;Min_cycle;Max_cycle;Signal;HPM_P1;HPM_P2
2022/08/16 00:02:26;;;;;;;1.17;0.70;;;20.30;90.30;;;;;;5079033;28;20475;-83
2022/08/16 00:04:53;;;;;;;1.17;1.07;;;20.20;90.30;;;;;;5086832;28;20465;-85
2022/08/16 00:07:22;;;;;;;0.60;0.50;;;20.20;90.50;;;;;;5071596;28;20610;-83
2022/08/16 00:09:49;;;;;;;0.50;0.40;;;20.20;90.50;;;;;;5074257;28;20464;-84
2022/08/16 00:12:16;;;;;;;0.60;0.50;;;20.10;90.50;;;;;;5081892;28;20480;-83
2022/08/16 00:14:43;;;;;;;1.00;0.50;;;20.10;90.60;;;;;;5078013;28;20482;-82
2022/08/16 00:17:10;;;;;;;0.57;0.57;;;20.10;90.90;;;;;;5078078;28;20582;-83
2022/08/16 00:19:37;;;;;;;3.60;0.90;;;20.00;91.80;;;;;;5081647;28;20460;-82
2022/08/16 00:22:04;;;;;;;1.07;0.70;;;19.90;92.80;;;;;;5080907;28;20470;-83
2022/08/16 00:24:34;;;;;;;0.70;0.60;;;19.80;94.00;;;;;;5095391;28;20472;-84
2022/08/16 00:27:02;;;;;;;2.70;1.13;;;19.70;95.40;;;;;;5094803;28;20488;-83
2022/08/16 00:29:29;;;;;;;1.63;1.00;;;19.60;96.00;;;;;;5091138;28;20459;-83
2022/08/16 00:31:57;;;;;;;5.77;0.87;;;19.60;96.70;;;;;;5085211;28;20467;-83
2022/08/16 00:34:25;;;;;;;2.10;0.77;;;19.50;97.10;;;;;;5082572;28;20530;-83
2022/08/16 00:36:52;;;;;;;0.90;0.70;;;19.50;97.30;;;;;;5079319;28;20466;-82
2022/08/16 00:39:19;;;;;;;1.30;1.07;;;19.40;97.80;;;;;;5086183;28;20464;-84
2022/08/16 00:41:49;;;;;;;0.80;0.80;;;19.40;98.30;;;;;;5079480;28;20463;-82
2022/08/16 00:44:20;;;;;;;0.90;0.70;;;19.40;98.60;;;;;;5084155;28;20483;-82
2022/08/16 00:46:53;;;;;;;0.90;0.70;;;19.30;98.90;;;;;;5082011;28;20517;-87
2022/08/16 00:49:20;;;;;;;1.07;1.00;;;19.30;98.90;;;;;;5080915;28;20459;-83
2022/08/16 00:51:48;;;;;;;0.70;0.60;;;19.40;98.80;;;;;;5071403;28;20476;-82
2022/08/16 00:54:15;;;;;;;0.80;0.70;;;19.30;98.90;;;;;;5078509;28;20545;-81
2022/08/16 00:56:44;;;;;;;2.00;0.53;;;19.30;98.80;;;;;;5076353;28;20945;-83
2022/08/16 00:59:15;;;;;;;0.80;0.60;;;19.40;98.90;;;;;;5079567;28;21151;-85
2022/08/16 01:01:44;;;;;;;1.57;0.63;;;19.40;98.70;;;;;;5076710;28;20938;-82
2022/08/16 01:04:13;;;;;;;4.33;0.90;;;19.40;98.70;;;;;;5081281;28;20519;-83
2022/08/16 01:06:40;;;;;;;1.07;0.90;;;19.40;98.90;;;;;;5081322;28;20464;-86
2022/08/16 01:09:08;;;;;;;1.33;0.60;;;19.50;99.20;;;;;;5072959;28;20468;-87
2022/08/16 01:11:37;;;;;;;1.20;1.10;;;19.50;99.60;;;;;;5074094;28;20463;-83
2022/08/16 01:14:10;;;;;;;1.17;0.60;;;19.50;99.50;;;;;;5081174;28;20915;-85
2022/08/16 01:16:41;;;;;;;0.70;0.63;;;19.40;99.70;;;;;;5079401;28;20739;-83
2022/08/16 01:19:16;;;;;;;1.10;0.70;;;19.40;99.90;;;;;;5082004;28;20464;-83
2022/08/16 01:21:51;;;;;;;1.60;1.03;;;19.30;99.90;;;;;;5075494;28;20460;-85
2022/08/16 01:24:24;;;;;;;0.70;0.50;;;19.20;99.90;;;;;;5083972;28;20494;-83
2022/08/16 01:26:53;;;;;;;0.90;0.60;;;19.10;99.90;;;;;;5081011;28;20472;-83
2022/08/16 01:29:28;;;;;;;0.73;0.70;;;19.10;99.90;;;;;;5076747;28;20517;-84
2022/08/16 01:31:56;;;;;;;1.30;0.93;;;19.00;99.90;;;;;;5079680;28;20504;-82
2022/08/16 01:34:23;;;;;;;0.80;0.80;;;19.00;99.90;;;;;;5082593;28;20687;-86
2022/08/16 01:36:58;;;;;;;1.80;0.70;;;19.00;99.90;;;;;;5079535;28;21271;-82
2022/08/16 01:39:26;;;;;;;0.77;0.77;;;19.00;99.90;;;;;;5078706;28;20536;-84
2022/08/16 01:41:53;;;;;;;1.07;0.70;;;19.00;99.90;;;;;;5076719;28;20513;-83
2022/08/16 01:44:20;;;;;;;0.80;0.60;;;19.00;99.90;;;;;;5078217;28;21113;-82
2022/08/16 01:46:49;;;;;;;1.43;0.90;;;19.00;99.90;;;;;;5077791;28;20460;-85
2022/08/16 01:49:21;;;;;;;0.63;0.60;;;19.00;99.90;;;;;;5075598;28;20576;-84
2022/08/16 01:51:53;;;;;;;0.97;0.77;;;18.90;99.90;;;;;;5082997;28;20466;-84
2022/08/16 01:54:22;;;;;;;1.03;0.93;;;18.90;99.90;;;;;;5069934;28;20478;-83
2022/08/16 01:56:51;;;;;;;1.03;0.60;;;18.90;99.90;;;;;;5076791;28;20460;-88
2022/08/16 01:59:18;;;;;;;3.23;0.93;;;18.90;99.90;;;;;;5080889;28;20471;-86
2022/08/16 02:01:46;;;;;;;0.90;0.80;;;18.90;99.90;;;;;;5076788;28;20463;-83
2022/08/16 02:04:13;;;;;;;0.80;0.80;;;18.90;99.90;;;;;;5083220;28;20477;-84
2022/08/16 02:06:41;;;;;;;1.33;1.10;;;18.90;99.90;;;;;;5077060;28;20492;-84
2022/08/16 02:09:09;;;;;;;1.10;0.70;;;18.90;99.90;;;;;;5075481;28;20501;-83
2022/08/16 02:11:38;;;;;;;0.80;0.70;;;18.90;99.90;;;;;;5081648;28;20462;-84
2022/08/16 02:14:07;;;;;;;8.50;1.10;;;18.90;99.90;;;;;;5079804;28;20993;-83
2022/08/16 02:16:34;;;;;;;0.97;0.80;;;18.80;99.90;;;;;;5076584;28;20490;-85
2022/08/16 02:19:02;;;;;;;1.00;0.70;;;18.90;99.90;;;;;;5079731;28;20542;-83
2022/08/16 02:21:30;;;;;;;1.87;0.87;;;18.90;99.90;;;;;;5069821;28;20470;-83
2022/08/16 02:23:58;;;;;;;1.03;0.80;;;19.00;99.90;;;;;;5075833;28;20460;-83
2022/08/16 02:26:25;;;;;;;0.80;0.70;;;19.00;99.90;;;;;;5073559;28;20478;-83
2022/08/16 02:28:53;;;;;;;3.80;0.80;;;19.00;99.90;;;;;;5075226;28;21124;-84
2022/08/16 02:31:21;;;;;;;0.87;0.87;;;19.00;99.90;;;;;;5071782;28;20458;-84
2022/08/16 02:33:48;;;;;;;1.00;0.90;;;19.00;99.90;;;;;;5081387;28;20464;-84
2022/08/16 02:36:16;;;;;;;0.70;0.70;;;19.00;99.90;;;;;;5076238;28;20542;-83
2022/08/16 02:38:43;;;;;;;0.70;0.60;;;19.00;99.90;;;;;;5079218;28;20469;-86
2022/08/16 02:41:10;;;;;;;3.13;1.37;;;19.00;99.90;;;;;;5077523;28;20495;-86
2022/08/16 02:43:38;;;;;;;0.93;0.60;;;19.00;99.90;;;;;;5083433;28;21169;-83
2022/08/16 02:46:07;;;;;;;0.60;0.60;;;18.90;99.90;;;;;;5074001;28;20545;-84
2022/08/16 02:48:37;;;;;;;0.70;0.60;;;19.00;99.90;;;;;;5074139;28;20959;-83
2022/08/16 02:51:06;;;;;;;1.07;0.60;;;19.00;99.90;;;;;;5071419;28;20466;-84
2022/08/16 02:53:34;;;;;;;0.80;0.70;;;18.90;99.90;;;;;;5082173;28;20478;-83
2022/08/16 02:56:01;;;;;;;0.70;0.70;;;18.90;99.90;;;;;;5081156;28;20499;-86
2022/08/16 02:58:28;;;;;;;1.00;0.60;;;18.80;99.90;;;;;;5081696;28;20469;-84
2022/08/16 03:00:56;;;;;;;0.90;0.70;;;18.80;99.90;;;;;;5083280;28;21905;-84
2022/08/16 03:03:23;;;;;;;2.00;1.00;;;18.80;99.90;;;;;;5077830;28;20469;-83
2022/08/16 03:05:52;;;;;;;1.47;0.70;;;18.80;99.90;;;;;;5079058;28;20520;-83
2022/08/16 03:08:19;;;;;;;0.83;0.67;;;18.90;99.90;;;;;;5085538;28;20464;-83
2022/08/16 03:10:48;;;;;;;0.93;0.80;;;18.90;99.90;;;;;;5078024;28;20516;-83
2022/08/16 03:13:16;;;;;;;1.27;1.17;;;18.80;99.90;;;;;;5076708;28;20480;-84
2022/08/16 03:15:43;;;;;;;0.90;0.60;;;18.80;99.90;;;;;;5076697;28;20977;-84
2022/08/16 03:18:11;;;;;;;1.47;0.63;;;18.70;99.90;;;;;;5082791;28;20471;-86
2022/08/16 03:20:38;;;;;;;0.97;0.73;;;18.70;99.90;;;;;;5082333;28;21293;-84
2022/08/16 03:23:07;;;;;;;0.90;0.90;;;18.70;99.90;;;;;;5082521;28;20459;-86
2022/08/16 03:25:36;;;;;;;1.10;0.70;;;18.70;99.90;;;;;;5085586;28;20537;-83
2022/08/16 03:28:04;;;;;;;0.70;0.70;;;18.60;99.90;;;;;;5078127;28;20474;-84
2022/08/16 03:30:33;;;;;;;1.20;1.10;;;18.50;99.90;;;;;;5085841;28;20499;-83
2022/08/16 03:33:01;;;;;;;0.90;0.70;;;18.60;99.90;;;;;;5082197;28;20455;-86
2022/08/16 03:35:31;;;;;;;2.20;0.80;;;18.60;99.90;;;;;;5074721;28;20514;-84
2022/08/16 03:38:00;;;;;;;0.70;0.70;;;18.50;99.90;;;;;;5079107;28;20515;-84
2022/08/16 03:40:29;;;;;;;0.70;0.60;;;18.40;99.90;;;;;;5078315;28;20469;-83
2022/08/16 03:42:56;;;;;;;0.90;0.90;;;18.40;99.90;;;;;;5081171;28;20498;-83
2022/08/16 03:45:24;;;;;;;1.00;0.70;;;18.40;99.90;;;;;;5072078;28;20911;-87
2022/08/16 03:47:51;;;;;;;1.03;0.93;;;18.50;99.90;;;;;;5081939;28;21160;-87
2022/08/16 03:50:19;;;;;;;1.03;0.70;;;18.40;99.90;;;;;;5090051;28;21167;-84
2022/08/16 03:52:47;;;;;;;2.93;0.97;;;18.30;99.90;;;;;;5090496;28;20459;-84
2022/08/16 03:55:14;;;;;;;1.67;0.70;;;18.30;99.90;;;;;;5099576;28;20562;-83
2022/08/16 03:57:42;;;;;;;1.10;1.00;;;18.40;99.90;;;;;;5085672;28;20467;-84
2022/08/16 04:00:13;;;;;;;2.20;0.80;;;18.30;99.90;;;;;;5085065;28;20491;-84
2022/08/16 04:02:41;;;;;;;0.90;0.80;;;18.30;99.90;;;;;;5074234;28;20515;-84
2022/08/16 04:05:09;;;;;;;2.70;0.90;;;18.30;99.90;;;;;;5072751;28;20493;-87
2022/08/16 04:07:37;;;;;;;0.83;0.80;;;18.20;99.90;;;;;;5072302;28;20460;-84
2022/08/16 04:10:06;;;;;;;3.23;1.33;;;18.20;99.90;;;;;;5067955;28;20493;-88
2022/08/16 04:12:33;;;;;;;0.60;0.60;;;18.20;99.90;;;;;;5077669;28;20522;-83
2022/08/16 04:15:02;;;;;;;2.77;0.87;;;18.20;99.90;;;;;;5079494;28;20535;-84
2022/08/16 04:17:30;;;;;;;1.13;0.97;;;18.20;99.90;;;;;;5080651;28;20465;-84
2022/08/16 04:19:57;;;;;;;1.00;0.60;;;18.30;99.90;;;;;;5082612;28;20981;-87
2022/08/16 04:22:24;;;;;;;0.60;0.60;;;18.40;99.90;;;;;;5074210;28;20463;-87
2022/08/16 04:24:52;;;;;;;0.90;0.80;;;18.40;99.90;;;;;;5080472;28;20463;-88
2022/08/16 04:27:19;;;;;;;1.03;0.70;;;18.40;99.90;;;;;;5074117;28;20475;-86
2022/08/16 04:29:46;;;;;;;0.73;0.73;;;18.50;99.90;;;;;;5080379;28;20442;-86
2022/08/16 04:32:14;;;;;;;0.97;0.70;;;18.50;99.90;;;;;;5087149;28;20543;-84
2022/08/16 04:34:41;;;;;;;0.80;0.80;;;18.50;99.90;;;;;;5080711;28;20965;-84
2022/08/16 04:37:09;;;;;;;0.83;0.80;;;18.50;99.90;;;;;;5075222;28;20528;-86
2022/08/16 04:39:37;;;;;;;1.10;1.00;;;18.40;99.90;;;;;;5071278;28;20464;-84
2022/08/16 04:42:06;;;;;;;1.23;0.63;;;18.30;99.90;;;;;;5073518;28;20463;-85
2022/08/16 04:44:33;;;;;;;0.97;0.73;;;18.30;99.90;;;;;;5070004;28;20487;-84
2022/08/16 04:47:00;;;;;;;1.27;0.93;;;18.30;99.90;;;;;;5078834;28;21062;-85
2022/08/16 04:49:28;;;;;;;0.87;0.80;;;18.40;99.90;;;;;;5075224;28;21073;-85
2022/08/16 04:51:56;;;;;;;1.53;1.00;;;18.40;99.90;;;;;;5078419;28;20465;-84
2022/08/16 04:54:23;;;;;;;2.00;0.97;;;18.30;99.90;;;;;;5079764;28;20556;-87
2022/08/16 04:56:50;;;;;;;1.47;0.70;;;18.40;99.90;;;;;;5084161;28;20851;-86
2022/08/16 04:59:17;;;;;;;2.47;1.03;;;18.50;99.90;;;;;;5080194;28;20450;-84
2022/08/16 05:01:44;;;;;;;1.57;1.13;;;18.40;99.90;;;;;;5083312;28;20524;-87
2022/08/16 05:04:11;;;;;;;3.23;0.90;;;18.40;99.90;;;;;;5076560;28;20449;-85
2022/08/16 05:06:40;;;;;;;0.70;0.67;;;18.40;99.90;;;;;;5078166;28;20448;-85
2022/08/16 05:09:07;;;;;;;0.70;0.60;;;18.50;99.90;;;;;;5074650;28;20461;-86
2022/08/16 05:11:34;;;;;;;1.63;0.60;;;18.60;99.90;;;;;;5072689;28;20462;-84
2022/08/16 05:14:01;;;;;;;1.30;0.90;;;18.60;99.90;;;;;;5066596;28;20470;-84
2022/08/16 05:16:31;;;;;;;0.80;0.80;;;18.60;99.90;;;;;;5066719;28;21044;-87
2022/08/16 05:19:01;;;;;;;1.10;1.00;;;18.70;99.90;;;;;;5066473;28;20461;-85
2022/08/16 05:21:30;;;;;;;0.80;0.80;;;18.80;99.90;;;;;;5065309;28;20443;-85
2022/08/16 05:23:58;;;;;;;1.37;0.87;;;18.90;99.90;;;;;;5071211;28;21039;-84
2022/08/16 05:26:26;;;;;;;1.83;1.10;;;18.90;99.90;;;;;;5071126;28;20602;-85
2022/08/16 05:28:53;;;;;;;2.00;1.30;;;18.90;99.90;;;;;;5065408;28;20447;-84
2022/08/16 05:31:20;;;;;;;1.13;1.00;;;19.00;99.90;;;;;;5085316;28;20454;-86
2022/08/16 05:33:47;;;;;;;1.20;0.90;;;19.00;99.90;;;;;;5076647;28;20478;-84
2022/08/16 05:36:14;;;;;;;2.00;0.93;;;19.00;99.90;;;;;;5085643;28;20880;-85
2022/08/16 05:38:41;;;;;;;1.73;1.03;;;19.20;99.90;;;;;;5072537;28;20471;-85
2022/08/16 05:41:09;;;;;;;1.97;0.90;;;19.20;99.90;;;;;;5087984;28;20460;-84
2022/08/16 05:43:37;;;;;;;1.73;0.90;;;19.20;99.90;;;;;;5086964;28;20881;-84
2022/08/16 05:46:04;;;;;;;0.77;0.77;;;19.50;99.90;;;;;;5076173;28;20457;-85
2022/08/16 05:48:31;;;;;;;8.60;0.93;;;19.60;99.90;;;;;;5085532;28;20997;-86
2022/08/16 05:50:58;;;;;;;1.07;0.70;;;19.80;99.90;;;;;;5071875;28;20544;-85
2022/08/16 05:53:25;;;;;;;1.70;1.40;;;19.70;99.90;;;;;;5086278;28;20500;-84
2022/08/16 05:55:52;;;;;;;2.30;1.13;;;19.90;99.90;;;;;;5089963;28;20516;-84
2022/08/16 05:58:21;;;;;;;0.73;0.73;;;19.90;99.90;;;;;;5077078;28;20444;-86
2022/08/16 06:00:48;;;;;;;1.43;1.17;;;19.90;99.90;;;;;;5086937;28;20449;-84
2022/08/16 06:03:15;;;;;;;1.00;0.80;;;20.00;99.90;;;;;;5084936;28;20445;-88
2022/08/16 06:05:42;;;;;;;3.30;0.90;;;20.10;99.90;;;;;;5078210;28;21376;-84
2022/08/16 06:08:09;;;;;;;1.00;0.70;;;20.10;99.90;;;;;;5070254;28;20471;-84
2022/08/16 06:10:36;;;;;;;1.23;0.80;;;20.10;99.90;;;;;;5076209;28;20478;-85
2022/08/16 06:13:03;;;;;;;0.60;0.50;;;20.10;99.90;;;;;;5066070;28;20458;-87
2022/08/16 06:15:31;;;;;;;1.10;0.80;;;20.00;99.90;;;;;;5065781;28;20460;-84
2022/08/16 06:17:58;;;;;;;1.23;1.00;;;20.00;99.90;;;;;;5065445;28;20453;-84
2022/08/16 06:20:28;;;;;;;1.17;0.77;;;20.10;99.90;;;;;;5065590;28;20985;-86
2022/08/16 06:22:56;;;;;;;3.33;0.90;;;20.20;99.90;;;;;;5073995;28;20453;-83
2022/08/16 06:25:24;;;;;;;0.80;0.80;;;20.20;99.90;;;;;;5067689;28;20447;-84
2022/08/16 06:27:52;;;;;;;1.43;1.33;;;20.40;99.90;;;;;;5065947;28;20498;-84
2022/08/16 06:30:19;;;;;;;1.30;0.90;;;20.40;99.90;;;;;;5065120;28;20436;-84
2022/08/16 06:32:48;;;;;;;1.80;1.07;;;20.20;99.90;;;;;;5085342;28;20476;-84
2022/08/16 06:35:16;;;;;;;1.23;0.90;;;20.30;99.90;;;;;;5080781;28;20466;-85
2022/08/16 06:37:43;;;;;;;0.80;0.80;;;20.50;99.90;;;;;;5084783;28;20576;-87
2022/08/16 06:40:12;;;;;;;2.70;0.77;;;20.40;99.90;;;;;;5078963;28;20459;-85
2022/08/16 06:42:39;;;;;;;1.10;1.00;;;20.40;99.90;;;;;;5083446;28;20521;-84
2022/08/16 06:45:08;;;;;;;0.97;0.80;;;20.50;99.90;;;;;;5086371;28;21101;-85
2022/08/16 06:47:35;;;;;;;1.20;0.80;;;20.80;99.90;;;;;;5086983;28;20443;-84
2022/08/16 06:50:04;;;;;;;0.60;0.60;;;21.00;99.90;;;;;;5099970;28;20446;-84
2022/08/16 06:52:35;;;;;;;1.20;0.80;;;21.20;99.90;;;;;;5103067;28;20457;-84
2022/08/16 06:55:03;;;;;;;1.73;0.80;;;21.00;99.90;;;;;;5083925;28;20458;-86
2022/08/16 06:57:30;;;;;;;1.30;1.00;;;21.40;99.90;;;;;;5085268;28;21098;-85
2022/08/16 06:59:57;;;;;;;1.63;1.40;;;21.50;99.90;;;;;;5081289;28;20451;-85
2022/08/16 07:02:24;;;;;;;8.97;0.77;;;21.50;99.90;;;;;;5066160;28;20470;-84
2022/08/16 07:04:51;;;;;;;0.90;0.90;;;21.60;99.90;;;;;;5079757;28;20451;-87
2022/08/16 07:07:20;;;;;;;2.00;1.07;;;21.50;99.90;;;;;;5074916;28;20462;-85
2022/08/16 07:09:47;;;;;;;1.63;0.90;;;21.40;99.90;;;;;;5080161;28;20521;-84
2022/08/16 07:12:14;;;;;;;1.17;0.97;;;21.50;99.90;;;;;;5077510;28;20501;-86
2022/08/16 07:14:41;;;;;;;2.30;0.60;;;21.40;99.90;;;;;;5085694;28;20865;-84
2022/08/16 07:17:08;;;;;;;6.50;1.00;;;21.70;99.90;;;;;;5079366;28;21123;-85
2022/08/16 07:19:35;;;;;;;1.33;0.90;;;21.60;99.90;;;;;;5078732;28;20508;-85
2022/08/16 07:22:02;;;;;;;0.70;0.70;;;21.60;99.90;;;;;;5083998;28;20457;-85
2022/08/16 07:24:31;;;;;;;2.00;0.73;;;21.70;99.90;;;;;;5082648;28;20450;-86
2022/08/16 07:26:59;;;;;;;0.60;0.60;;;21.60;99.90;;;;;;5095130;28;20462;-84
2022/08/16 07:29:26;;;;;;;1.73;0.60;;;21.60;99.90;;;;;;5080073;28;20464;-88
2022/08/16 07:31:53;;;;;;;0.83;0.80;;;21.40;99.40;;;;;;5072866;28;20439;-83
2022/08/16 07:34:21;;;;;;;0.80;0.70;;;21.40;98.70;;;;;;5067070;28;20489;-84
2022/08/16 07:36:48;;;;;;;0.80;0.80;;;21.60;98.40;;;;;;5071847;28;20478;-83
2022/08/16 07:39:16;;;;;;;1.00;0.60;;;21.70;98.30;;;;;;5069777;28;20467;-82
2022/08/16 07:41:44;;;;;;;0.50;0.50;;;22.00;97.60;;;;;;5070434;28;20447;-83
2022/08/16 07:44:12;;;;;;;1.73;0.77;;;22.20;97.00;;;;;;5066098;28;20487;-83
2022/08/16 07:46:39;;;;;;;1.83;0.90;;;22.30;95.30;;;;;;5075575;28;21017;-82
2022/08/16 07:49:06;;;;;;;1.10;0.70;;;22.40;94.70;;;;;;5074414;28;20439;-85
2022/08/16 07:51:35;;;;;;;0.83;0.83;;;22.30;95.20;;;;;;5068963;28;20444;-83
2022/08/16 07:54:04;;;;;;;1.77;1.20;;;22.60;94.60;;;;;;5068405;28;20471;-87
2022/08/16 07:56:31;;;;;;;0.60;0.60;;;22.90;94.40;;;;;;5071557;28;20511;-83
2022/08/16 07:59:00;;;;;;;2.57;0.57;;;23.20;93.10;;;;;;5068645;28;20491;-83
2022/08/16 08:01:28;;;;;;;0.97;0.97;;;23.30;92.00;;;;;;5067454;28;20546;-82
2022/08/16 08:03:57;;;;;;;0.60;0.60;;;23.60;92.00;;;;;;5068996;28;20568;-83
2022/08/16 08:06:26;;;;;;;0.53;0.50;;;23.70;91.70;;;;;;5067594;28;20531;-85
2022/08/16 08:08:53;;;;;;;0.70;0.70;;;24.00;90.60;;;;;;5073717;28;20971;-83
2022/08/16 08:11:22;;;;;;;0.60;0.60;;;24.10;89.90;;;;;;5072461;28;20452;-83
2022/08/16 08:13:49;;;;;;;0.63;0.63;;;24.10;90.40;;;;;;5067866;28;20459;-85
2022/08/16 08:16:18;;;;;;;0.80;0.57;;;23.90;89.50;;;;;;5068113;28;20468;-84
2022/08/16 08:18:45;;;;;;;1.60;0.53;;;23.80;90.20;;;;;;5068399;28;20467;-83
2022/08/16 08:21:12;;;;;;;1.00;0.80;;;23.60;89.50;;;;;;5067587;28;20455;-83
2022/08/16 08:23:40;;;;;;;0.70;0.70;;;23.60;88.80;;;;;;5068327;28;20467;-83
2022/08/16 08:26:08;;;;;;;3.30;1.17;;;23.80;90.40;;;;;;5070446;28;20448;-84
2022/08/16 08:28:35;;;;;;;0.63;0.60;;;23.60;89.60;;;;;;5070549;28;20447;-83
2022/08/16 08:31:02;;;;;;;0.93;0.60;;;23.90;89.90;;;;;;5073566;28;20450;-86
2022/08/16 08:33:32;;;;;;;0.80;0.70;;;24.10;88.70;;;;;;5081248;28;20549;-83
2022/08/16 08:36:01;;;;;;;0.50;0.50;;;24.30;87.30;;;;;;5084694;28;20452;-83
2022/08/16 08:38:30;;;;;;;0.63;0.63;;;24.10;85.90;;;;;;5085138;28;21066;-84
2022/08/16 08:40:57;;;;;;;0.80;0.67;;;24.20;84.70;;;;;;5079815;28;20463;-83
2022/08/16 08:43:24;;;;;;;0.70;0.60;;;24.40;83.60;;;;;;5078360;28;20487;-83
2022/08/16 08:45:53;;;;;;;1.37;0.90;;;24.40;82.30;;;;;;5080107;28;20470;-84
2022/08/16 08:48:24;;;;;;;0.80;0.50;;;24.30;84.10;;;;;;5081111;28;20816;-83
2022/08/16 08:50:52;;;;;;;0.77;0.70;;;24.00;85.20;;;;;;5076870;28;20504;-82
2022/08/16 08:53:19;;;;;;;1.20;0.90;;;23.60;85.70;;;;;;5078286;28;20463;-85
2022/08/16 08:55:48;;;;;;;0.70;0.60;;;23.70;86.40;;;;;;5081273;28;20921;-85
2022/08/16 08:58:15;;;;;;;0.70;0.67;;;24.10;87.30;;;;;;5077332;28;20483;-82
2022/08/16 09:00:42;;;;;;;1.53;1.17;;;24.20;83.90;;;;;;5084179;28;20443;-83
2022/08/16 09:03:09;;;;;;;0.73;0.60;;;24.60;85.50;;;;;;5083411;28;20450;-82
2022/08/16 09:05:36;;;;;;;1.00;0.90;;;24.60;85.20;;;;;;5074002;28;20467;-83
2022/08/16 09:08:05;;;;;;;1.23;0.60;;;24.80;86.00;;;;;;5076981;28;20467;-85
2022/08/16 09:10:32;;;;;;;2.90;0.50;;;24.80;86.10;;;;;;5082069;28;21002;-83
2022/08/16 09:12:59;;;;;;;0.93;0.50;;;25.00;85.00;;;;;;5081141;28;20495;-83
2022/08/16 09:15:27;;;;;;;0.80;0.70;;;25.10;83.20;;;;;;5079925;28;20455;-82
2022/08/16 09:17:55;;;;;;;0.70;0.70;;;24.80;84.40;;;;;;5076495;28;20964;-85
2022/08/16 09:20:24;;;;;;;0.70;0.60;;;24.80;83.20;;;;;;5068306;28;20459;-82
2022/08/16 09:22:51;;;;;;;0.70;0.60;;;25.00;81.60;;;;;;5076889;28;20989;-84
2022/08/16 09:25:20;;;;;;;0.60;0.50;;;25.10;83.60;;;;;;5074530;28;20460;-85
2022/08/16 09:27:47;;;;;;;1.10;0.90;;;25.70;82.00;;;;;;5073812;28;20495;-84
2022/08/16 09:30:14;;;;;;;0.80;0.70;;;25.80;83.80;;;;;;5076932;28;20471;-83
2022/08/16 09:32:41;;;;;;;1.27;0.70;;;26.10;80.60;;;;;;5079695;28;20520;-82
2022/08/16 09:35:10;;;;;;;0.70;0.57;;;25.90;79.80;;;;;;5072817;28;20475;-83
2022/08/16 09:37:37;;;;;;;0.70;0.70;;;25.70;79.90;;;;;;5071246;28;20490;-82
2022/08/16 09:40:05;;;;;;;0.60;0.53;;;25.90;78.30;;;;;;5077551;28;20508;-83
2022/08/16 09:42:34;;;;;;;1.00;0.73;;;26.20;79.40;;;;;;5075375;28;20470;-82
2022/08/16 09:45:02;;;;;;;0.93;0.77;;;26.10;77.00;;;;;;5081302;28;20505;-83
2022/08/16 09:47:29;;;;;;;2.50;0.63;;;26.00;77.20;;;;;;5083727;28;20537;-82
2022/08/16 09:49:56;;;;;;;1.13;0.70;;;26.20;80.20;;;;;;5085485;28;20554;-81
2022/08/16 09:52:23;;;;;;;0.73;0.50;;;26.20;76.80;;;;;;5082112;28;20552;-85
2022/08/16 09:54:51;;;;;;;0.70;0.70;;;26.40;75.70;;;;;;5080340;28;21319;-85
2022/08/16 09:57:18;;;;;;;0.80;0.60;;;26.10;73.00;;;;;;5073914;28;20516;-83
2022/08/16 09:59:46;;;;;;;1.47;0.67;;;26.20;73.90;;;;;;5067490;28;20909;-83
2022/08/16 10:02:13;;;;;;;0.77;0.77;;;26.20;72.30;;;;;;5082240;28;20462;-84
2022/08/16 10:04:40;;;;;;;0.60;0.60;;;26.50;76.20;;;;;;5071148;28;21041;-83
2022/08/16 10:07:07;;;;;;;1.00;0.83;;;26.40;75.50;;;;;;5081592;28;20458;-85
2022/08/16 10:09:34;;;;;;;0.50;0.50;;;26.60;71.70;;;;;;5079616;28;21039;-83
2022/08/16 10:14:46;;;;;;;0.70;0.70;;;26.90;68.60;;;;;;5077567;28;20512;-83
2022/08/16 10:17:14;;;;;;;0.70;0.60;;;26.90;70.00;;;;;;5072062;28;20487;-82
2022/08/16 10:19:41;;;;;;;0.60;0.60;;;26.80;65.80;;;;;;5076767;28;20879;-85
2022/08/16 10:22:09;;;;;;;0.80;0.80;;;26.50;66.90;;;;;;5074928;28;20472;-85
2022/08/16 10:24:36;;;;;;;1.87;0.50;;;26.40;70.10;;;;;;5071598;28;20513;-82
2022/08/16 10:27:03;;;;;;;0.80;0.50;;;27.10;71.20;;;;;;5068297;28;20523;-83
2022/08/16 10:29:30;;;;;;;1.80;0.60;;;27.00;67.60;;;;;;5067384;28;20540;-84
2022/08/16 10:31:59;;;;;;;0.70;0.60;;;27.00;67.80;;;;;;5075085;28;20474;-85
2022/08/16 10:34:26;;;;;;;0.87;0.50;;;27.50;67.90;;;;;;5069880;28;21048;-85
2022/08/16 10:36:53;;;;;;;0.80;0.60;;;27.60;64.10;;;;;;5080946;28;20458;-87
2022/08/16 10:39:20;;;;;;;0.67;0.60;;;27.60;64.40;;;;;;5072911;28;20495;-85
2022/08/16 10:41:47;;;;;;;0.70;0.67;;;27.80;63.40;;;;;;5067167;28;20561;-84
2022/08/16 10:44:14;;;;;;;0.70;0.53;;;27.60;60.70;;;;;;5069237;28;20488;-90
2022/08/16 10:46:42;;;;;;;1.43;0.70;;;27.40;60.10;;;;;;5070352;28;20946;-84
2022/08/16 10:49:11;;;;;;;0.50;0.50;;;27.40;59.50;;;;;;5073664;28;20470;-85
2022/08/16 10:51:38;;;;;;;1.17;0.50;;;27.30;60.80;;;;;;5068157;28;20533;-84
2022/08/16 10:54:05;;;;;;;0.60;0.50;;;27.20;61.20;;;;;;5078936;28;20463;-84
2022/08/16 10:56:33;;;;;;;0.90;0.83;;;26.80;59.80;;;;;;5080142;28;20944;-85
2022/08/16 10:59:00;;;;;;;0.60;0.50;;;26.90;61.30;;;;;;5071089;28;21246;-84
2022/08/16 11:01:27;;;;;;;0.60;0.60;;;27.10;61.20;;;;;;5067074;28;20558;-85
2022/08/16 11:03:55;;;;;;;0.93;0.50;;;27.60;62.40;;;;;;5072941;28;20521;-87
2022/08/16 11:06:24;;;;;;;0.53;0.53;;;27.40;58.80;;;;;;5068998;28;20459;-86
2022/08/16 11:08:51;;;;;;;0.70;0.70;;;27.50;59.00;;;;;;5077868;28;20489;-85
2022/08/16 11:11:18;;;;;;;1.13;0.60;;;27.50;62.00;;;;;;5076090;28;20471;-84
2022/08/16 11:13:47;;;;;;;0.93;0.80;;;27.60;58.90;;;;;;5077471;28;20525;-85
2022/08/16 11:16:14;;;;;;;0.93;0.60;;;27.80;65.60;;;;;;5079194;28;20473;-84
2022/08/16 11:18:41;;;;;;;0.73;0.70;;;27.80;58.70;;;;;;5081891;28;20572;-87
2022/08/16 11:21:08;;;;;;;0.50;0.50;;;28.20;60.40;;;;;;5077000;28;20985;-84
2022/08/16 11:23:37;;;;;;;0.60;0.60;;;28.30;57.40;;;;;;5077393;28;20459;-84
2022/08/16 11:26:04;;;;;;;0.63;0.53;;;28.30;59.10;;;;;;5083392;28;21057;-85
2022/08/16 11:28:31;;;;;;;1.00;0.60;;;28.50;60.20;;;;;;5075698;28;20467;-85
2022/08/16 11:30:58;;;;;;;2.30;0.93;;;28.80;56.90;;;;;;5078146;28;20524;-84
2022/08/16 11:33:25;;;;;;;0.60;0.57;;;28.80;56.40;;;;;;5081306;28;20886;-88
2022/08/16 11:35:53;;;;;;;1.37;0.50;;;28.50;54.80;;;;;;5077172;28;20964;-86
2022/08/16 11:38:22;;;;;;;0.80;0.70;;;28.40;54.30;;;;;;5082580;28;20474;-85
2022/08/16 11:40:55;;;;;;;0.70;0.50;;;28.40;54.40;;;;;;5075217;28;20533;-88
2022/08/16 11:43:24;;;;;;;3.20;0.50;;;28.40;54.40;;;;;;5075718;28;20580;-85
2022/08/16 11:45:52;;;;;;;0.80;0.70;;;28.70;54.40;;;;;;5083762;28;20447;-82
2022/08/16 11:48:19;;;;;;;0.60;0.53;;;28.90;53.80;;;;;;5084838;28;20527;-84
2022/08/16 11:50:48;;;;;;;1.07;0.70;;;28.70;53.90;;;;;;5077344;28;20462;-85
2022/08/16 11:53:15;;;;;;;1.30;0.60;;;28.60;54.30;;;;;;5077592;28;21009;-86
2022/08/16 11:55:43;;;;;;;0.60;0.60;;;28.70;52.50;;;;;;5076250;28;20487;-85
2022/08/16 11:58:12;;;;;;;1.33;0.60;;;28.50;55.20;;;;;;5076953;28;20498;-87
2022/08/16 12:00:41;;;;;;;0.90;0.67;;;28.50;54.20;;;;;;5073885;28;20463;-85
2022/08/16 12:03:09;;;;;;;0.93;0.53;;;28.50;54.90;;;;;;5080370;28;20495;-86
2022/08/16 12:05:37;;;;;;;2.00;0.60;;;28.50;52.70;;;;;;5071831;28;21170;-86
2022/08/16 12:08:05;;;;;;;0.70;0.60;;;28.20;54.00;;;;;;5075537;28;20483;-84
2022/08/16 12:10:33;;;;;;;0.60;0.50;;;28.00;54.60;;;;;;5080560;28;20454;-85
2022/08/16 12:13:00;;;;;;;1.73;0.87;;;28.50;58.40;;;;;;5074254;28;20479;-85
2022/08/16 12:15:29;;;;;;;0.97;0.70;;;28.70;57.50;;;;;;5074520;28;20970;-85
2022/08/16 12:17:56;;;;;;;0.70;0.60;;;28.60;51.70;;;;;;5082257;28;20479;-85
2022/08/16 12:20:27;;;;;;;0.53;0.47;;;28.30;53.30;;;;;;5076973;28;20517;-85
2022/08/16 12:22:55;;;;;;;0.70;0.60;;;28.50;54.00;;;;;;5074660;28;20898;-85
2022/08/16 12:25:24;;;;;;;0.90;0.90;;;28.70;53.70;;;;;;5070954;28;20472;-85
2022/08/16 12:27:53;;;;;;;0.60;0.60;;;28.70;52.30;;;;;;5071548;28;20853;-84
2022/08/16 12:30:23;;;;;;;0.60;0.60;;;28.70;52.60;;;;;;5072702;28;20463;-85
2022/08/16 12:32:52;;;;;;;0.63;0.60;;;28.60;51.70;;;;;;5073408;28;20456;-85
2022/08/16 12:35:21;;;;;;;0.70;0.57;;;28.60;52.70;;;;;;5074897;28;20452;-85
2022/08/16 12:37:49;;;;;;;1.03;0.50;;;28.80;52.60;;;;;;5081662;28;20469;-86
2022/08/16 12:40:19;;;;;;;0.73;0.60;;;28.70;53.20;;;;;;5087563;28;20494;-85
2022/08/16 12:42:49;;;;;;;1.37;0.77;;;29.20;54.70;;;;;;5089942;28;20511;-85
2022/08/16 12:45:18;;;;;;;0.80;0.50;;;29.10;52.30;;;;;;5085617;28;20460;-85
2022/08/16 12:50:32;;;;;;;1.37;0.50;;;28.90;51.00;;;;;;5074338;28;20976;-88
2022/08/16 12:52:59;;;;;;;0.80;0.60;;;29.00;51.70;;;;;;5070076;28;20468;-86
2022/08/16 12:55:27;;;;;;;0.67;0.57;;;28.70;51.30;;;;;;5065818;28;20551;-88
2022/08/16 12:57:55;;;;;;;1.27;0.50;;;28.80;50.80;;;;;;5069904;28;21085;-84